sensor_id;sensor_type;location;lat;lon;timestamp;P1;durP1;ratioP1;P2;durP2;ratioP2
70363;SDS011;57785;43.898;1.886;2022-07-21T06:03:16;11.65;;;6.05;;
70363;SDS011;57785;43.898;1.886;2022-07-21T06:05:42;8.30;;;5.93;;
70363;SDS011;57785;43.898;1.886;2022-07-21T06:08:08;10.10;;;5.82;;
70363;SDS011;57785;43.898;1.886;2022-07-21T06:10:34;9.43;;;6.00;;
70363;SDS011;57785;43.898;1.886;2022-07-21T06:13:00;8.45;;;5.70;;
70363;SDS011;57785;43.898;1.886;2022-07-21T06:15:27;8.75;;;5.30;;
70363;SDS011;57785;43.898;1.886;2022-07-21T06:17:53;8.35;;;5.53;;
70363;SDS011;57785;43.898;1.886;2022-07-21T06:20:19;7.95;;;5.60;;
70363;SDS011;57785;43.898;1.886;2022-07-21T06:22:45;6.75;;;5.00;;
70363;SDS011;57785;43.898;1.886;2022-07-21T06:25:11;8.70;;;5.20;;
70363;SDS011;57785;43.898;1.886;2022-07-21T06:27:37;7.53;;;4.65;;
70363;SDS011;57785;43.898;1.886;2022-07-21T06:30:04;8.40;;;4.82;;
70363;SDS011;57785;43.898;1.886;2022-07-21T06:32:30;7.30;;;5.05;;
70363;SDS011;57785;43.898;1.886;2022-07-21T06:34:56;7.78;;;5.10;;
70363;SDS011;57785;43.898;1.886;2022-07-21T06:37:22;7.75;;;4.60;;
70363;SDS011;57785;43.898;1.886;2022-07-21T06:39:48;9.00;;;4.90;;
70363;SDS011;57785;43.898;1.886;2022-07-21T06:42:14;7.78;;;4.47;;
70363;SDS011;57785;43.898;1.886;2022-07-21T06:44:40;6.50;;;4.30;;
70363;SDS011;57785;43.898;1.886;2022-07-21T06:47:06;8.40;;;4.25;;
70363;SDS011;57785;43.898;1.886;2022-07-21T06:49:33;8.88;;;4.25;;
70363;SDS011;57785;43.898;1.886;2022-07-21T06:51:59;10.15;;;3.90;;
70363;SDS011;57785;43.898;1.886;2022-07-21T06:54:25;6.72;;;3.92;;
70363;SDS011;57785;43.898;1.886;2022-07-21T06:56:51;7.15;;;3.90;;
70363;SDS011;57785;43.898;1.886;2022-07-21T06:59:17;6.35;;;4.00;;
70363;SDS011;57785;43.898;1.886;2022-07-21T07:01:43;5.18;;;3.83;;
70363;SDS011;57785;43.898;1.886;2022-07-21T07:04:09;5.07;;;3.80;;
70363;SDS011;57785;43.898;1.886;2022-07-21T07:06:35;8.90;;;4.00;;
70363;SDS011;57785;43.898;1.886;2022-07-21T07:09:01;8.15;;;3.80;;
70363;SDS011;57785;43.898;1.886;2022-07-21T07:11:27;7.53;;;3.70;;
70363;SDS011;57785;43.898;1.886;2022-07-21T07:13:53;7.82;;;3.80;;
70363;SDS011;57785;43.898;1.886;2022-07-21T07:16:19;6.20;;;3.80;;
70363;SDS011;57785;43.898;1.886;2022-07-21T07:18:46;7.93;;;3.92;;
70363;SDS011;57785;43.898;1.886;2022-07-21T07:21:12;5.47;;;3.67;;
70363;SDS011;57785;43.898;1.886;2022-07-21T07:23:38;6.20;;;3.40;;
70363;SDS011;57785;43.898;1.886;2022-07-21T07:26:05;5.72;;;3.50;;
70363;SDS011;57785;43.898;1.886;2022-07-21T07:28:31;5.65;;;3.30;;
70363;SDS011;57785;43.898;1.886;2022-07-21T07:30:57;5.97;;;3.30;;
70363;SDS011;57785;43.898;1.886;2022-07-21T07:33:23;7.30;;;4.10;;
70363;SDS011;57785;43.898;1.886;2022-07-21T07:35:50;7.32;;;3.88;;
70363;SDS011;57785;43.898;1.886;2022-07-21T07:38:16;8.63;;;3.63;;
70363;SDS011;57785;43.898;1.886;2022-07-21T07:40:42;9.45;;;3.78;;
70363;SDS011;57785;43.898;1.886;2022-07-21T07:43:08;10.02;;;3.92;;
70363;SDS011;57785;43.898;1.886;2022-07-21T07:45:34;10.18;;;3.88;;
70363;SDS011;57785;43.898;1.886;2022-07-21T16:48:26;4.68;;;2.85;;
70363;SDS011;57785;43.898;1.886;2022-07-21T16:50:52;3.28;;;2.70;;
70363;SDS011;57785;43.898;1.886;2022-07-21T16:53:18;5.03;;;2.83;;
70363;SDS011;57785;43.898;1.886;2022-07-21T16:55:44;4.65;;;3.17;;
70363;SDS011;57785;43.898;1.886;2022-07-21T16:58:10;5.25;;;2.95;;
70363;SDS011;57785;43.898;1.886;2022-07-21T17:00:36;5.25;;;2.60;;
70363;SDS011;57785;43.898;1.886;2022-07-21T17:03:02;4.25;;;2.75;;
70363;SDS011;57785;43.898;1.886;2022-07-21T17:05:29;5.13;;;2.70;;
70363;SDS011;57785;43.898;1.886;2022-07-21T17:07:55;4.75;;;2.88;;
70363;SDS011;57785;43.898;1.886;2022-07-21T17:10:21;4.90;;;2.80;;
70363;SDS011;57785;43.898;1.886;2022-07-21T17:12:47;2.65;;;2.35;;
70363;SDS011;57785;43.898;1.886;2022-07-21T17:15:14;5.43;;;2.80;;
70363;SDS011;57785;43.898;1.886;2022-07-21T17:17:41;3.65;;;2.70;;
70363;SDS011;57785;43.898;1.886;2022-07-21T17:20:07;3.90;;;2.70;;
70363;SDS011;57785;43.898;1.886;2022-07-21T17:22:34;4.45;;;2.80;;
70363;SDS011;57785;43.898;1.886;2022-07-21T17:25:00;4.20;;;2.65;;
70363;SDS011;57785;43.898;1.886;2022-07-21T17:27:27;4.25;;;2.80;;
70363;SDS011;57785;43.898;1.886;2022-07-21T17:29:53;3.88;;;2.40;;
70363;SDS011;57785;43.898;1.886;2022-07-21T17:32:19;3.53;;;2.47;;
70363;SDS011;57785;43.898;1.886;2022-07-21T17:34:45;4.53;;;2.63;;
70363;SDS011;57785;43.898;1.886;2022-07-21T17:37:11;3.80;;;2.67;;
70363;SDS011;57785;43.898;1.886;2022-07-21T17:39:37;3.17;;;2.42;;
70363;SDS011;57785;43.898;1.886;2022-07-21T17:42:04;4.22;;;2.55;;
70363;SDS011;57785;43.898;1.886;2022-07-21T17:44:31;6.20;;;2.50;;
70363;SDS011;57785;43.898;1.886;2022-07-21T17:46:57;3.65;;;2.63;;
70363;SDS011;57785;43.898;1.886;2022-07-21T17:49:23;3.97;;;2.53;;
70363;SDS011;57785;43.898;1.886;2022-07-21T17:51:49;3.85;;;2.58;;
70363;SDS011;57785;43.898;1.886;2022-07-21T17:54:15;3.70;;;2.65;;
70363;SDS011;57785;43.898;1.886;2022-07-21T17:56:41;5.65;;;2.67;;
70363;SDS011;57785;43.898;1.886;2022-07-21T17:59:07;4.10;;;2.80;;
70363;SDS011;57785;43.898;1.886;2022-07-21T18:01:33;4.35;;;2.65;;
70363;SDS011;57785;43.898;1.886;2022-07-21T18:03:59;4.25;;;2.63;;
70363;SDS011;57785;43.898;1.886;2022-07-21T18:06:26;4.43;;;2.60;;
70363;SDS011;57785;43.898;1.886;2022-07-21T18:08:52;4.95;;;2.60;;
70363;SDS011;57785;43.898;1.886;2022-07-21T18:11:18;4.38;;;2.70;;
70363;SDS011;57785;43.898;1.886;2022-07-21T18:13:45;2.65;;;2.30;;
70363;SDS011;57785;43.898;1.886;2022-07-21T18:16:11;4.70;;;2.67;;
70363;SDS011;57785;43.898;1.886;2022-07-21T18:18:37;4.70;;;2.60;;
70363;SDS011;57785;43.898;1.886;2022-07-21T18:21:04;7.65;;;2.90;;
70363;SDS011;57785;43.898;1.886;2022-07-21T18:23:30;5.03;;;2.72;;
70363;SDS011;57785;43.898;1.886;2022-07-21T18:25:56;4.78;;;2.63;;
70363;SDS011;57785;43.898;1.886;2022-07-21T18:28:23;4.45;;;3.03;;
70363;SDS011;57785;43.898;1.886;2022-07-21T18:30:49;4.97;;;2.58;;
70363;SDS011;57785;43.898;1.886;2022-07-21T18:33:15;4.85;;;2.80;;
70363;SDS011;57785;43.898;1.886;2022-07-21T18:35:41;4.13;;;2.97;;
70363;SDS011;57785;43.898;1.886;2022-07-21T18:38:07;4.85;;;2.80;;
70363;SDS011;57785;43.898;1.886;2022-07-21T18:40:34;6.80;;;2.70;;
70363;SDS011;57785;43.898;1.886;2022-07-21T18:43:00;3.15;;;2.60;;
70363;SDS011;57785;43.898;1.886;2022-07-21T18:45:28;3.90;;;2.60;;
70363;SDS011;57785;43.898;1.886;2022-07-21T18:47:55;4.72;;;2.78;;
70363;SDS011;57785;43.898;1.886;2022-07-21T18:50:21;6.65;;;2.90;;
70363;SDS011;57785;43.898;1.886;2022-07-21T18:52:48;4.47;;;2.80;;
70363;SDS011;57785;43.898;1.886;2022-07-21T18:55:14;7.32;;;3.10;;
70363;SDS011;57785;43.898;1.886;2022-07-21T18:57:40;4.25;;;2.80;;
70363;SDS011;57785;43.898;1.886;2022-07-21T19:00:08;4.10;;;2.85;;
70363;SDS011;57785;43.898;1.886;2022-07-21T19:02:35;5.38;;;2.63;;
70363;SDS011;57785;43.898;1.886;2022-07-21T19:05:01;4.28;;;2.70;;
70363;SDS011;57785;43.898;1.886;2022-07-21T19:07:27;4.30;;;2.95;;
70363;SDS011;57785;43.898;1.886;2022-07-21T19:09:53;4.47;;;3.10;;
70363;SDS011;57785;43.898;1.886;2022-07-21T19:12:19;4.65;;;2.85;;
70363;SDS011;57785;43.898;1.886;2022-07-21T19:14:45;4.38;;;2.78;;
70363;SDS011;57785;43.898;1.886;2022-07-21T19:17:11;5.10;;;2.97;;
70363;SDS011;57785;43.898;1.886;2022-07-21T19:19:37;5.25;;;3.13;;
70363;SDS011;57785;43.898;1.886;2022-07-21T19:22:03;6.47;;;3.03;;
70363;SDS011;57785;43.898;1.886;2022-07-21T19:24:29;3.70;;;3.00;;
70363;SDS011;57785;43.898;1.886;2022-07-21T19:26:55;3.72;;;2.90;;
70363;SDS011;57785;43.898;1.886;2022-07-21T19:29:21;5.35;;;2.88;;
70363;SDS011;57785;43.898;1.886;2022-07-21T19:31:48;4.70;;;3.00;;
70363;SDS011;57785;43.898;1.886;2022-07-21T19:34:20;6.20;;;3.28;;
70363;SDS011;57785;43.898;1.886;2022-07-21T19:36:46;5.70;;;2.85;;
70363;SDS011;57785;43.898;1.886;2022-07-21T19:39:12;4.25;;;2.85;;
70363;SDS011;57785;43.898;1.886;2022-07-21T19:41:38;4.70;;;2.83;;
70363;SDS011;57785;43.898;1.886;2022-07-21T19:44:05;4.32;;;3.13;;
70363;SDS011;57785;43.898;1.886;2022-07-21T19:46:31;4.85;;;3.00;;
70363;SDS011;57785;43.898;1.886;2022-07-21T19:48:57;4.22;;;2.75;;
70363;SDS011;57785;43.898;1.886;2022-07-21T19:51:23;7.25;;;2.80;;
70363;SDS011;57785;43.898;1.886;2022-07-21T19:53:49;6.18;;;2.90;;
70363;SDS011;57785;43.898;1.886;2022-07-21T19:56:15;4.25;;;3.15;;
70363;SDS011;57785;43.898;1.886;2022-07-21T19:58:42;7.32;;;3.10;;
70363;SDS011;57785;43.898;1.886;2022-07-21T20:01:08;5.38;;;3.03;;
70363;SDS011;57785;43.898;1.886;2022-07-21T20:03:34;5.10;;;3.38;;
70363;SDS011;57785;43.898;1.886;2022-07-21T20:06:00;6.38;;;3.00;;
70363;SDS011;57785;43.898;1.886;2022-07-21T20:08:26;4.88;;;3.15;;
70363;SDS011;57785;43.898;1.886;2022-07-21T20:10:52;4.20;;;3.13;;
70363;SDS011;57785;43.898;1.886;2022-07-21T20:13:18;5.40;;;2.95;;
70363;SDS011;57785;43.898;1.886;2022-07-21T20:15:45;7.40;;;3.63;;
70363;SDS011;57785;43.898;1.886;2022-07-21T20:18:11;19.58;;;4.18;;
70363;SDS011;57785;43.898;1.886;2022-07-21T20:20:38;21.15;;;9.68;;
70363;SDS011;57785;43.898;1.886;2022-07-21T20:23:04;13.00;;;5.10;;
70363;SDS011;57785;43.898;1.886;2022-07-21T20:25:30;6.45;;;3.28;;
70363;SDS011;57785;43.898;1.886;2022-07-21T20:27:56;7.00;;;3.38;;
70363;SDS011;57785;43.898;1.886;2022-07-21T20:30:23;13.10;;;4.35;;
70363;SDS011;57785;43.898;1.886;2022-07-21T20:32:49;18.20;;;3.88;;
70363;SDS011;57785;43.898;1.886;2022-07-21T20:35:17;8.68;;;3.50;;
70363;SDS011;57785;43.898;1.886;2022-07-21T20:37:44;7.20;;;3.53;;
70363;SDS011;57785;43.898;1.886;2022-07-21T20:40:10;7.40;;;3.25;;
70363;SDS011;57785;43.898;1.886;2022-07-21T20:42:37;6.88;;;3.70;;
70363;SDS011;57785;43.898;1.886;2022-07-21T20:45:04;7.88;;;3.72;;
70363;SDS011;57785;43.898;1.886;2022-07-21T20:47:30;5.25;;;3.40;;
70363;SDS011;57785;43.898;1.886;2022-07-21T20:49:56;4.85;;;3.05;;
70363;SDS011;57785;43.898;1.886;2022-07-21T20:52:22;6.97;;;3.25;;
70363;SDS011;57785;43.898;1.886;2022-07-21T20:54:48;4.97;;;3.22;;
70363;SDS011;57785;43.898;1.886;2022-07-21T20:57:14;5.65;;;3.47;;
70363;SDS011;57785;43.898;1.886;2022-07-21T20:59:44;5.50;;;3.35;;
70363;SDS011;57785;43.898;1.886;2022-07-21T21:02:10;7.18;;;3.15;;
70363;SDS011;57785;43.898;1.886;2022-07-21T21:04:36;5.20;;;3.10;;
70363;SDS011;57785;43.898;1.886;2022-07-21T21:07:02;7.05;;;3.28;;
70363;SDS011;57785;43.898;1.886;2022-07-21T21:09:29;3.80;;;3.30;;
70363;SDS011;57785;43.898;1.886;2022-07-21T21:11:55;6.93;;;3.40;;
70363;SDS011;57785;43.898;1.886;2022-07-21T21:14:21;10.88;;;3.50;;
70363;SDS011;57785;43.898;1.886;2022-07-21T21:16:48;8.88;;;3.85;;
70363;SDS011;57785;43.898;1.886;2022-07-21T21:19:16;7.82;;;4.00;;
70363;SDS011;57785;43.898;1.886;2022-07-21T21:21:42;10.15;;;4.75;;
70363;SDS011;57785;43.898;1.886;2022-07-21T21:24:08;6.72;;;3.58;;
70363;SDS011;57785;43.898;1.886;2022-07-21T21:26:34;8.57;;;3.65;;
70363;SDS011;57785;43.898;1.886;2022-07-21T21:29:00;5.85;;;3.65;;
70363;SDS011;57785;43.898;1.886;2022-07-21T21:31:26;5.15;;;3.67;;
70363;SDS011;57785;43.898;1.886;2022-07-21T21:33:52;13.60;;;4.07;;
70363;SDS011;57785;43.898;1.886;2022-07-21T21:36:18;10.73;;;4.43;;
70363;SDS011;57785;43.898;1.886;2022-07-21T21:38:45;7.13;;;3.67;;
70363;SDS011;57785;43.898;1.886;2022-07-21T21:41:11;7.68;;;3.40;;
70363;SDS011;57785;43.898;1.886;2022-07-21T21:43:37;7.07;;;3.33;;
70363;SDS011;57785;43.898;1.886;2022-07-21T21:46:03;7.75;;;3.65;;
70363;SDS011;57785;43.898;1.886;2022-07-21T21:48:33;5.60;;;3.22;;
70363;SDS011;57785;43.898;1.886;2022-07-21T21:51:00;8.20;;;3.60;;
70363;SDS011;57785;43.898;1.886;2022-07-21T21:53:26;5.75;;;3.50;;
70363;SDS011;57785;43.898;1.886;2022-07-21T21:55:52;6.40;;;3.53;;
70363;SDS011;57785;43.898;1.886;2022-07-21T21:58:18;7.28;;;3.30;;
70363;SDS011;57785;43.898;1.886;2022-07-21T22:00:44;6.28;;;3.33;;
70363;SDS011;57785;43.898;1.886;2022-07-21T22:03:10;4.78;;;3.63;;
70363;SDS011;57785;43.898;1.886;2022-07-21T22:05:36;6.00;;;3.30;;
70363;SDS011;57785;43.898;1.886;2022-07-21T22:08:02;8.60;;;3.33;;
70363;SDS011;57785;43.898;1.886;2022-07-21T22:10:28;7.78;;;3.40;;
70363;SDS011;57785;43.898;1.886;2022-07-21T22:12:54;5.80;;;3.28;;
70363;SDS011;57785;43.898;1.886;2022-07-21T22:15:20;9.35;;;3.40;;
70363;SDS011;57785;43.898;1.886;2022-07-21T22:17:46;9.40;;;3.38;;
70363;SDS011;57785;43.898;1.886;2022-07-21T22:20:12;7.65;;;3.83;;
70363;SDS011;57785;43.898;1.886;2022-07-21T22:22:38;7.40;;;3.22;;
70363;SDS011;57785;43.898;1.886;2022-07-21T22:25:05;8.20;;;3.15;;
70363;SDS011;57785;43.898;1.886;2022-07-21T22:27:32;8.35;;;3.47;;
70363;SDS011;57785;43.898;1.886;2022-07-21T22:29:58;8.95;;;3.50;;
70363;SDS011;57785;43.898;1.886;2022-07-21T22:32:25;6.78;;;3.40;;
70363;SDS011;57785;43.898;1.886;2022-07-21T22:34:51;5.97;;;3.53;;
70363;SDS011;57785;43.898;1.886;2022-07-21T22:37:17;5.15;;;3.00;;
70363;SDS011;57785;43.898;1.886;2022-07-21T22:39:43;6.03;;;3.30;;
70363;SDS011;57785;43.898;1.886;2022-07-21T22:42:10;5.30;;;3.08;;
70363;SDS011;57785;43.898;1.886;2022-07-21T22:44:36;6.30;;;3.40;;
70363;SDS011;57785;43.898;1.886;2022-07-21T22:47:02;9.75;;;3.35;;
70363;SDS011;57785;43.898;1.886;2022-07-21T22:49:29;5.30;;;3.65;;
70363;SDS011;57785;43.898;1.886;2022-07-21T22:51:55;4.90;;;3.33;;
70363;SDS011;57785;43.898;1.886;2022-07-21T22:54:21;5.70;;;3.28;;
70363;SDS011;57785;43.898;1.886;2022-07-21T22:56:47;5.75;;;3.40;;
70363;SDS011;57785;43.898;1.886;2022-07-21T22:59:13;5.82;;;3.65;;
